createdAt,value
2018-12-25T00:00:56.707Z,5.70
2018-12-25T00:03:01.224Z,5.70
2018-12-25T00:05:06.003Z,5.70
2018-12-25T00:07:10.551Z,5.70
2018-12-25T00:09:15.087Z,5.70
2018-12-25T00:11:19.763Z,5.60
2018-12-25T00:13:24.445Z,5.70
2018-12-25T00:15:29.233Z,5.70
2018-12-25T00:17:33.722Z,5.70
2018-12-25T00:19:38.327Z,5.70
2018-12-25T00:21:42.947Z,5.60
2018-12-25T00:23:47.470Z,5.70
2018-12-25T00:25:52.022Z,5.70
2018-12-25T00:27:56.678Z,5.70
2018-12-25T00:30:01.234Z,5.60
2018-12-25T00:32:05.720Z,5.70
2018-12-25T00:34:10.205Z,5.70
2018-12-25T00:36:14.690Z,5.70
2018-12-25T00:38:19.193Z,5.70
2018-12-25T00:40:23.796Z,5.70
2018-12-25T00:42:28.445Z,5.70
2018-12-25T00:44:32.984Z,5.70
2018-12-25T00:46:37.474Z,5.70
2018-12-25T00:48:41.983Z,5.70
2018-12-25T00:50:46.536Z,5.70
2018-12-25T00:52:51.018Z,5.80
2018-12-25T00:54:55.499Z,5.80
2018-12-25T00:57:00.032Z,5.80
2018-12-25T00:59:04.575Z,5.80
2018-12-25T01:01:09.144Z,5.80
2018-12-25T01:03:13.705Z,5.80
2018-12-25T01:05:18.253Z,5.70
2018-12-25T01:07:22.741Z,5.80
2018-12-25T01:09:27.271Z,5.80
2018-12-25T01:11:31.748Z,5.80
2018-12-25T01:13:36.337Z,5.80
2018-12-25T01:15:40.868Z,5.70
2018-12-25T01:17:45.323Z,5.80
2018-12-25T01:19:49.827Z,5.70
2018-12-25T01:21:54.399Z,5.80
2018-12-25T01:23:58.876Z,5.70
2018-12-25T01:26:03.320Z,5.70
2018-12-25T01:28:07.849Z,5.80
2018-12-25T01:30:12.392Z,5.80
2018-12-25T01:32:16.867Z,5.80
2018-12-25T01:34:21.509Z,5.80
2018-12-25T01:36:26.001Z,5.80
2018-12-25T01:38:30.547Z,5.70
2018-12-25T01:40:35.007Z,5.80
2018-12-25T01:42:39.552Z,5.80
2018-12-25T01:44:44.074Z,5.80
2018-12-25T01:46:48.589Z,5.80
2018-12-25T01:48:53.115Z,5.80
2018-12-25T01:50:57.659Z,5.80
2018-12-25T01:53:02.136Z,5.80
2018-12-25T01:55:07.428Z,5.80
2018-12-25T01:57:12.019Z,5.80
2018-12-25T01:59:16.497Z,5.80
2018-12-25T02:01:21.049Z,5.70
2018-12-25T02:03:25.548Z,5.80
2018-12-25T02:05:30.068Z,5.70
2018-12-25T02:07:34.621Z,5.70
2018-12-25T02:09:39.099Z,5.80
2018-12-25T02:11:43.653Z,5.80
2018-12-25T02:13:48.202Z,5.80
2018-12-25T02:15:52.659Z,5.80
2018-12-25T02:17:57.237Z,5.80
2018-12-25T02:20:01.664Z,5.90
2018-12-25T02:22:06.188Z,5.90
2018-12-25T02:24:10.640Z,5.90
2018-12-25T02:26:15.213Z,5.80
2018-12-25T02:28:19.744Z,5.90
2018-12-25T02:30:24.209Z,5.90
2018-12-25T02:32:28.705Z,5.80
2018-12-25T02:34:33.180Z,5.80
2018-12-25T02:36:37.801Z,5.80
2018-12-25T02:38:42.430Z,5.80
2018-12-25T02:40:46.943Z,5.80
2018-12-25T02:42:51.401Z,5.80
2018-12-25T02:44:55.878Z,5.80
2018-12-25T02:47:00.401Z,5.80
2018-12-25T02:49:04.869Z,5.90
2018-12-25T02:51:09.341Z,5.90
2018-12-25T02:53:14.001Z,5.80
2018-12-25T02:55:18.621Z,5.80
2018-12-25T02:57:23.131Z,5.80
2018-12-25T02:59:27.697Z,5.80
2018-12-25T03:01:32.216Z,5.80
2018-12-25T03:03:36.815Z,5.80
2018-12-25T03:05:41.336Z,5.80
2018-12-25T03:07:46.632Z,5.80
2018-12-25T03:09:51.133Z,5.80
2018-12-25T03:11:55.671Z,5.80
2018-12-25T03:14:00.140Z,5.80
2018-12-25T03:16:04.627Z,5.80
2018-12-25T03:18:09.145Z,5.70
2018-12-25T03:20:13.807Z,5.80
2018-12-25T03:22:18.304Z,5.80
2018-12-25T03:24:22.893Z,5.80
2018-12-25T03:26:27.419Z,5.70
2018-12-25T03:28:32.532Z,5.70
2018-12-25T03:30:37.073Z,5.70
2018-12-25T03:32:41.565Z,5.70
2018-12-25T03:34:46.117Z,5.80
2018-12-25T03:36:50.615Z,5.80
2018-12-25T03:38:55.124Z,5.70
2018-12-25T03:40:59.626Z,5.80
2018-12-25T03:43:04.089Z,5.70
2018-12-25T03:45:08.695Z,5.80
2018-12-25T03:47:13.236Z,5.80
2018-12-25T03:49:17.763Z,5.80
2018-12-25T03:51:22.351Z,5.80
2018-12-25T03:53:26.845Z,5.80
2018-12-25T03:55:31.349Z,5.80
2018-12-25T03:57:35.939Z,5.80
2018-12-25T03:59:40.441Z,5.80
2018-12-25T04:01:44.980Z,5.80
2018-12-25T04:03:49.568Z,5.70
2018-12-25T04:05:54.069Z,5.70
2018-12-25T04:07:58.603Z,5.80
2018-12-25T04:10:03.193Z,5.70
2018-12-25T04:12:07.817Z,5.70
2018-12-25T04:14:12.360Z,5.70
2018-12-25T04:16:16.899Z,5.70
2018-12-25T04:18:21.474Z,5.70
2018-12-25T04:20:26.027Z,5.70
2018-12-25T04:22:30.516Z,5.70
2018-12-25T04:24:35.016Z,5.70
2018-12-25T04:26:39.593Z,5.70
2018-12-25T04:28:44.061Z,5.70
2018-12-25T04:30:48.534Z,5.70
2018-12-25T04:32:53.047Z,5.70
2018-12-25T04:34:57.619Z,5.70
2018-12-25T04:37:02.230Z,5.70
2018-12-25T04:39:07.689Z,5.80
2018-12-25T04:41:12.205Z,5.70
2018-12-25T04:43:16.831Z,5.80
2018-12-25T04:45:21.350Z,5.80
2018-12-25T04:47:25.919Z,5.70
2018-12-25T04:49:30.429Z,5.70
2018-12-25T04:51:34.951Z,5.70
2018-12-25T04:53:39.479Z,5.70
2018-12-25T04:55:43.992Z,5.70
2018-12-25T04:57:48.598Z,5.70
2018-12-25T04:59:53.110Z,5.70
2018-12-25T05:01:57.678Z,5.70
2018-12-25T05:04:02.273Z,5.70
2018-12-25T05:06:06.764Z,5.70
2018-12-25T05:08:11.343Z,5.70
2018-12-25T05:10:15.859Z,5.70
2018-12-25T05:12:20.419Z,5.70
2018-12-25T05:14:24.893Z,5.70
2018-12-25T05:16:29.460Z,5.70
2018-12-25T05:18:34.034Z,5.70
2018-12-25T05:20:38.583Z,5.70
2018-12-25T05:22:43.124Z,5.70
2018-12-25T05:24:47.605Z,5.80
2018-12-25T05:26:52.143Z,5.70
2018-12-25T05:28:56.715Z,5.70
2018-12-25T05:31:01.164Z,5.70
2018-12-25T05:33:05.727Z,5.70
2018-12-25T05:35:10.256Z,5.70
2018-12-25T05:37:14.745Z,5.70
2018-12-25T05:39:19.295Z,5.70
2018-12-25T05:41:23.876Z,5.80
2018-12-25T05:43:28.367Z,5.80
2018-12-25T05:45:32.816Z,5.80
2018-12-25T05:47:37.332Z,5.80
2018-12-25T05:49:41.949Z,5.80
2018-12-25T05:51:46.479Z,5.80
2018-12-25T05:53:51.482Z,5.70
2018-12-25T05:55:55.930Z,5.70
2018-12-25T05:58:00.440Z,5.80
2018-12-25T06:00:05.574Z,5.80
2018-12-25T06:02:10.216Z,5.70
2018-12-25T06:04:14.768Z,5.70
2018-12-25T06:06:19.355Z,5.70
2018-12-25T06:08:23.945Z,5.80
2018-12-25T06:10:28.424Z,5.80
2018-12-25T06:12:32.874Z,5.80
2018-12-25T06:14:37.445Z,5.50
2018-12-25T06:16:41.947Z,5.80
2018-12-25T06:18:46.430Z,5.80
2018-12-25T06:20:55.055Z,5.80
2018-12-25T06:22:55.488Z,5.80
2018-12-25T06:24:59.940Z,5.80
2018-12-25T06:27:04.451Z,5.80
2018-12-25T06:29:08.976Z,5.80
2018-12-25T06:31:13.522Z,5.80
2018-12-25T06:33:18.098Z,5.80
2018-12-25T06:35:22.618Z,5.80
2018-12-25T06:37:27.206Z,5.80
2018-12-25T06:39:31.693Z,5.80
2018-12-25T06:41:36.511Z,5.80
2018-12-25T06:43:40.976Z,5.80
2018-12-25T06:45:45.468Z,5.80
2018-12-25T06:47:49.967Z,5.80
2018-12-25T06:49:54.431Z,5.80
2018-12-25T06:51:58.900Z,5.80
2018-12-25T06:54:03.371Z,5.80
2018-12-25T06:56:07.988Z,5.80
2018-12-25T06:58:12.488Z,5.80
2018-12-25T07:00:17.073Z,5.80
2018-12-25T07:02:21.640Z,5.80
2018-12-25T07:04:26.117Z,5.80
2018-12-25T07:06:30.690Z,5.80
2018-12-25T07:08:35.175Z,5.80
2018-12-25T07:10:39.722Z,5.80
2018-12-25T07:12:44.290Z,5.80
2018-12-25T07:14:48.785Z,5.80
2018-12-25T07:16:53.326Z,5.80
2018-12-25T07:18:57.843Z,5.80
2018-12-25T07:21:02.357Z,5.90
2018-12-25T07:23:06.835Z,5.80
2018-12-25T07:25:11.363Z,5.90
2018-12-25T07:27:15.935Z,5.80
2018-12-25T07:29:20.443Z,5.80
2018-12-25T07:31:24.950Z,5.80
2018-12-25T07:33:29.468Z,5.80
2018-12-25T07:35:34.115Z,5.70
2018-12-25T07:37:38.621Z,5.70
2018-12-25T07:39:43.060Z,5.80
2018-12-25T07:41:47.619Z,5.70
2018-12-25T07:43:52.269Z,5.80
2018-12-25T07:45:56.815Z,5.70
2018-12-25T07:48:01.283Z,5.80
2018-12-25T07:50:06.424Z,5.80
2018-12-25T07:52:10.924Z,5.70
2018-12-25T07:54:15.595Z,5.80
2018-12-25T07:56:20.546Z,5.80
2018-12-25T07:58:25.072Z,5.80
2018-12-25T08:00:29.595Z,5.80
2018-12-25T08:02:34.080Z,5.80
2018-12-25T08:04:38.951Z,5.80
2018-12-25T08:06:43.527Z,5.80
2018-12-25T08:08:48.100Z,5.80
2018-12-25T08:10:52.563Z,5.80
2018-12-25T08:12:57.170Z,5.80
2018-12-25T08:15:01.847Z,5.90
2018-12-25T08:17:06.351Z,5.80
2018-12-25T08:19:10.847Z,5.80
2018-12-25T08:21:15.488Z,5.80
2018-12-25T08:23:20.058Z,5.80
2018-12-25T08:25:24.623Z,5.80
2018-12-25T08:27:29.188Z,5.80
2018-12-25T08:29:33.773Z,5.80
2018-12-25T08:31:38.224Z,5.80
2018-12-25T08:33:42.807Z,5.80
2018-12-25T08:35:47.325Z,5.80
2018-12-25T08:37:51.918Z,5.80
2018-12-25T08:39:56.594Z,5.80
2018-12-25T08:42:01.198Z,5.80
2018-12-25T08:44:05.716Z,5.80
2018-12-25T08:46:10.373Z,5.80
2018-12-25T08:48:17.389Z,5.90
2018-12-25T08:50:21.953Z,5.80
2018-12-25T08:52:26.491Z,5.80
2018-12-25T08:54:31.899Z,5.80
2018-12-25T08:56:36.339Z,5.80
2018-12-25T08:58:40.902Z,5.80
2018-12-25T09:00:45.441Z,5.90
2018-12-25T09:02:50.003Z,5.80
2018-12-25T09:04:54.476Z,5.80
2018-12-25T09:06:59.048Z,5.90
2018-12-25T09:09:05.379Z,5.90
2018-12-25T09:11:09.903Z,5.90
2018-12-25T09:13:14.520Z,5.90
2018-12-25T09:15:19.042Z,5.90
2018-12-25T09:17:23.575Z,5.90
2018-12-25T09:19:28.209Z,6.00
2018-12-25T09:21:34.262Z,6.00
2018-12-25T09:23:38.749Z,6.00
2018-12-25T09:25:43.378Z,6.00
2018-12-25T09:27:48.029Z,6.00
2018-12-25T09:29:52.598Z,6.00
2018-12-25T09:31:57.169Z,6.10
2018-12-25T09:34:01.701Z,6.10
2018-12-25T09:36:06.412Z,6.10
2018-12-25T09:38:10.935Z,6.10
2018-12-25T09:40:15.600Z,6.10
2018-12-25T09:42:20.108Z,6.10
2018-12-25T09:44:24.699Z,6.00
2018-12-25T09:46:29.320Z,6.10
2018-12-25T09:48:33.863Z,6.10
2018-12-25T09:50:38.436Z,6.10
2018-12-25T09:52:42.950Z,6.20
2018-12-25T09:54:47.545Z,6.20
2018-12-25T09:56:52.192Z,6.20
2018-12-25T09:58:56.671Z,6.20
2018-12-25T10:01:01.191Z,6.30
2018-12-25T10:03:05.741Z,6.30
2018-12-25T10:05:10.413Z,6.30
2018-12-25T10:07:15.048Z,6.40
2018-12-25T10:09:19.576Z,6.40
2018-12-25T10:11:24.424Z,6.40
2018-12-25T10:13:29.808Z,6.50
2018-12-25T10:15:34.326Z,6.50
2018-12-25T10:17:38.986Z,6.50
2018-12-25T10:19:43.600Z,6.50
2018-12-25T10:21:48.957Z,6.60
2018-12-25T10:23:54.586Z,6.60
2018-12-25T10:25:59.194Z,6.60
2018-12-25T10:28:04.736Z,6.60
2018-12-25T10:30:09.326Z,6.70
2018-12-25T10:32:13.854Z,6.60
2018-12-25T10:34:18.397Z,6.70
2018-12-25T10:36:22.953Z,6.70
2018-12-25T10:38:27.577Z,6.70
2018-12-25T10:40:32.048Z,6.60
2018-12-25T10:42:37.916Z,6.70
2018-12-25T10:44:42.633Z,6.70
2018-12-25T10:46:47.184Z,6.80
2018-12-25T10:48:51.764Z,6.80
2018-12-25T10:50:57.183Z,6.80
2018-12-25T10:53:01.767Z,6.80
2018-12-25T10:55:06.684Z,6.80
2018-12-25T10:57:11.299Z,6.80
2018-12-25T10:59:15.865Z,6.90
2018-12-25T11:09:05.951Z,6.90
2018-12-25T11:11:10.297Z,7.00
2018-12-25T11:13:14.693Z,7.00
2018-12-25T11:15:19.061Z,7.00
2018-12-25T11:17:23.469Z,7.00
2018-12-25T11:19:28.137Z,7.00
2018-12-25T11:21:32.550Z,7.00
2018-12-25T11:23:36.920Z,7.10
2018-12-25T11:25:41.305Z,7.00
2018-12-25T11:27:46.279Z,7.10
2018-12-25T11:29:50.657Z,7.10
2018-12-25T11:31:55.070Z,7.10
2018-12-25T11:33:59.430Z,7.20
2018-12-25T11:36:03.779Z,7.20
2018-12-25T11:38:08.169Z,7.20
2018-12-25T11:40:12.607Z,7.20
2018-12-25T11:42:17.048Z,7.20
2018-12-25T11:44:21.466Z,7.20
2018-12-25T11:46:25.805Z,7.20
2018-12-25T11:48:30.203Z,7.20
2018-12-25T11:50:34.581Z,7.20
2018-12-25T11:52:38.955Z,7.20
2018-12-25T11:54:43.907Z,7.20
2018-12-25T11:56:49.281Z,7.30
2018-12-25T11:58:53.670Z,7.30
2018-12-25T12:00:58.044Z,7.30
2018-12-25T12:03:03.454Z,7.30
2018-12-25T12:05:07.862Z,7.30
2018-12-25T12:07:12.197Z,7.40
2018-12-25T12:09:16.955Z,7.40
2018-12-25T12:11:21.346Z,7.40
2018-12-25T12:13:25.670Z,7.40
2018-12-25T12:15:30.023Z,7.40
2018-12-25T12:17:34.439Z,7.40
2018-12-25T12:19:38.846Z,7.40
2018-12-25T12:21:43.173Z,7.40
2018-12-25T12:23:47.532Z,7.40
2018-12-25T12:25:51.904Z,7.30
2018-12-25T12:27:56.262Z,7.40
2018-12-25T12:30:00.641Z,7.50
2018-12-25T12:32:05.058Z,7.40
2018-12-25T12:34:09.437Z,7.40
2018-12-25T12:36:13.779Z,7.40
2018-12-25T12:38:18.158Z,7.40
2018-12-25T12:40:22.530Z,7.40
2018-12-25T12:42:26.868Z,7.50
2018-12-25T12:44:31.290Z,7.50
2018-12-25T12:46:35.642Z,7.40
2018-12-25T12:48:40.011Z,7.50
2018-12-25T12:50:44.413Z,7.40
2018-12-25T12:52:48.803Z,7.50
2018-12-25T12:54:53.357Z,7.40
2018-12-25T12:56:57.735Z,7.50
2018-12-25T12:59:02.138Z,7.40
2018-12-25T13:01:06.515Z,7.40
2018-12-25T13:03:10.911Z,7.50
2018-12-25T13:05:15.273Z,7.50
2018-12-25T13:07:19.693Z,7.50
2018-12-25T13:09:24.097Z,7.40
2018-12-25T13:11:28.517Z,7.40
2018-12-25T13:13:32.884Z,7.50
2018-12-25T13:15:37.283Z,7.50
2018-12-25T13:17:41.621Z,7.50
2018-12-25T13:19:46.011Z,7.50
2018-12-25T13:21:50.486Z,7.50
2018-12-25T13:23:55.928Z,7.50
2018-12-25T13:26:00.327Z,7.50
2018-12-25T13:28:04.726Z,7.50
2018-12-25T13:30:09.599Z,7.50
2018-12-25T13:32:13.983Z,7.50
2018-12-25T13:34:18.375Z,7.50
2018-12-25T13:36:22.757Z,7.50
2018-12-25T13:38:27.143Z,7.50
2018-12-25T13:40:31.536Z,7.50
2018-12-25T13:42:36.008Z,7.50
2018-12-25T13:44:40.454Z,7.40
2018-12-25T13:46:51.464Z,7.40
2018-12-25T13:48:49.236Z,7.40
2018-12-25T13:50:53.611Z,7.30
2018-12-25T13:53:02.735Z,7.40
2018-12-25T13:55:03.356Z,7.30
2018-12-25T13:57:07.849Z,7.30
2018-12-25T13:59:12.207Z,7.30
2018-12-25T14:01:16.580Z,7.30
2018-12-25T14:03:21.210Z,7.30
2018-12-25T14:05:25.637Z,7.40
2018-12-25T14:07:29.978Z,7.40
2018-12-25T14:09:34.365Z,7.30
2018-12-25T14:11:38.733Z,7.30
2018-12-25T14:13:43.152Z,7.30
2018-12-25T14:15:47.571Z,7.30
2018-12-25T14:17:52.906Z,7.40
2018-12-25T14:19:57.270Z,7.40
2018-12-25T14:22:01.734Z,7.30
2018-12-25T14:24:06.164Z,7.20
2018-12-25T14:26:10.545Z,7.30
2018-12-25T14:28:14.887Z,7.10
2018-12-25T14:30:19.298Z,7.20
2018-12-25T14:32:23.724Z,7.20
2018-12-25T14:34:28.124Z,7.20
2018-12-25T14:36:32.507Z,7.20
2018-12-25T14:38:36.963Z,7.20
2018-12-25T14:40:41.329Z,7.20
2018-12-25T14:42:45.727Z,7.20
2018-12-25T14:44:50.123Z,7.20
2018-12-25T14:46:54.994Z,7.20
2018-12-25T14:48:59.348Z,7.20
2018-12-25T14:51:03.871Z,7.10
2018-12-25T14:53:08.342Z,7.20
2018-12-25T14:55:12.787Z,7.10
2018-12-25T14:57:17.205Z,7.10
2018-12-25T14:59:21.547Z,7.10
2018-12-25T15:01:25.890Z,7.10
2018-12-25T15:03:30.269Z,7.10
2018-12-25T15:05:34.618Z,7.10
2018-12-25T15:07:39.058Z,7.10
2018-12-25T15:09:43.499Z,7.00
2018-12-25T15:11:47.883Z,7.00
2018-12-25T15:13:52.286Z,7.10
2018-12-25T15:15:56.693Z,7.10
2018-12-25T15:18:01.047Z,7.10
2018-12-25T15:20:05.557Z,7.00
2018-12-25T15:22:09.994Z,7.00
2018-12-25T15:24:14.263Z,7.00
2018-12-25T15:26:18.650Z,7.00
2018-12-25T15:28:23.026Z,6.90
2018-12-25T15:30:27.412Z,6.90
2018-12-25T15:32:31.774Z,6.90
2018-12-25T15:34:36.126Z,6.90
2018-12-25T15:36:40.607Z,6.90
2018-12-25T15:38:44.935Z,6.90
2018-12-25T15:40:49.336Z,6.80
2018-12-25T15:42:53.751Z,6.90
2018-12-25T15:44:58.373Z,6.80
2018-12-25T15:47:02.812Z,6.80
2018-12-25T15:49:07.192Z,6.80
2018-12-25T15:51:11.661Z,6.80
2018-12-25T15:53:16.043Z,6.70
2018-12-25T15:55:20.414Z,6.80
2018-12-25T15:57:24.799Z,6.70
2018-12-25T15:59:29.207Z,6.70
2018-12-25T16:01:33.626Z,6.70
2018-12-25T16:03:37.983Z,6.70
2018-12-25T16:05:42.337Z,6.70
2018-12-25T16:07:46.739Z,6.70
2018-12-25T16:09:51.078Z,6.60
2018-12-25T16:11:55.565Z,6.60
2018-12-25T16:13:59.947Z,6.70
2018-12-25T16:16:04.506Z,6.60
2018-12-25T16:18:09.246Z,6.60
2018-12-25T16:20:13.593Z,6.60
2018-12-25T16:22:17.922Z,6.60
2018-12-25T16:24:27.451Z,6.60
2018-12-25T16:26:26.922Z,6.60
2018-12-25T16:28:31.307Z,6.60
2018-12-25T16:30:35.703Z,6.60
2018-12-25T16:32:40.168Z,6.60
2018-12-25T16:34:44.528Z,6.50
2018-12-25T16:36:48.875Z,6.60
2018-12-25T16:38:55.257Z,6.50
2018-12-25T16:40:57.743Z,6.50
2018-12-25T16:43:02.116Z,6.50
2018-12-25T16:45:06.646Z,6.50
2018-12-25T16:47:10.975Z,6.40
2018-12-25T16:49:15.347Z,6.50
2018-12-25T16:51:19.765Z,6.40
2018-12-25T16:53:24.100Z,6.40
2018-12-25T16:55:28.537Z,6.30
2018-12-25T16:57:32.939Z,6.40
2018-12-25T16:59:37.335Z,6.30
2018-12-25T17:01:41.773Z,6.40
2018-12-25T17:03:46.103Z,6.40
2018-12-25T17:05:50.489Z,6.30
2018-12-25T17:07:54.907Z,6.30
2018-12-25T17:09:59.350Z,6.30
2018-12-25T17:12:03.743Z,6.30
2018-12-25T17:14:08.106Z,6.30
2018-12-25T17:16:12.498Z,6.30
2018-12-25T17:18:16.880Z,6.20
2018-12-25T17:20:21.238Z,6.30
2018-12-25T17:22:25.631Z,6.30
2018-12-25T17:24:29.985Z,6.30
2018-12-25T17:26:34.347Z,6.30
2018-12-25T17:28:38.754Z,6.40
2018-12-25T17:30:43.106Z,6.40
2018-12-25T17:32:47.473Z,6.30
2018-12-25T17:34:51.835Z,6.30
2018-12-25T17:36:56.258Z,6.30
2018-12-25T17:39:01.233Z,6.30
2018-12-25T17:41:05.631Z,6.30
2018-12-25T17:43:09.950Z,6.20
2018-12-25T17:45:14.902Z,6.20
2018-12-25T17:47:19.319Z,6.20
2018-12-25T17:49:23.699Z,6.20
2018-12-25T17:51:28.090Z,6.20
2018-12-25T17:53:32.486Z,6.20
2018-12-25T17:55:36.837Z,6.10
2018-12-25T17:57:41.178Z,6.10
2018-12-25T17:59:45.535Z,6.10
2018-12-25T18:01:49.868Z,6.10
2018-12-25T18:03:54.285Z,6.10
2018-12-25T18:05:58.761Z,6.10
2018-12-25T18:08:03.104Z,6.20
2018-12-25T18:10:07.510Z,6.10
2018-12-25T18:12:11.894Z,6.10
2018-12-25T18:14:17.476Z,6.10
2018-12-25T18:16:21.828Z,6.10
2018-12-25T18:18:26.224Z,6.00
2018-12-25T18:20:30.639Z,6.00
2018-12-25T18:22:35.052Z,6.10
2018-12-25T18:24:39.521Z,6.00
2018-12-25T18:26:43.890Z,6.00
2018-12-25T18:28:48.261Z,6.00
2018-12-25T18:30:52.666Z,6.00
2018-12-25T18:32:57.334Z,6.00
2018-12-25T18:35:01.460Z,6.00
2018-12-25T18:37:05.892Z,6.00
2018-12-25T18:39:10.234Z,6.00
2018-12-25T18:41:14.689Z,5.90
2018-12-25T18:43:19.506Z,6.00
2018-12-25T18:45:23.897Z,6.00
2018-12-25T18:47:28.262Z,5.90
2018-12-25T18:49:32.660Z,5.90
2018-12-25T18:51:37.019Z,5.80
2018-12-25T18:53:41.338Z,5.90
2018-12-25T18:55:46.651Z,5.90
2018-12-25T18:57:50.996Z,5.90
2018-12-25T18:59:55.351Z,5.90
2018-12-25T19:01:59.896Z,5.90
2018-12-25T19:04:04.296Z,5.90
2018-12-25T19:06:08.619Z,5.90
2018-12-25T19:08:13.015Z,5.90
2018-12-25T19:10:17.350Z,5.90
2018-12-25T19:12:21.756Z,5.90
2018-12-25T19:14:26.150Z,5.90
2018-12-25T19:16:30.489Z,5.90
2018-12-25T19:18:34.839Z,5.90
2018-12-25T19:20:39.365Z,5.90
2018-12-25T19:22:43.989Z,5.90
2018-12-25T19:24:48.321Z,5.90
2018-12-25T19:26:52.662Z,5.80
2018-12-25T19:28:57.170Z,5.90
2018-12-25T19:31:01.530Z,5.90
2018-12-25T19:33:05.930Z,5.90
2018-12-25T19:35:10.288Z,5.90
2018-12-25T19:37:14.641Z,5.80
2018-12-25T19:39:19.036Z,5.90
2018-12-25T19:41:24.283Z,5.90
2018-12-25T19:43:28.673Z,5.90
2018-12-25T19:45:33.547Z,5.90
2018-12-25T19:47:37.909Z,5.80
2018-12-25T19:49:42.319Z,5.80
2018-12-25T19:51:46.727Z,5.80
2018-12-25T19:53:51.125Z,5.80
2018-12-25T19:55:55.534Z,5.80
2018-12-25T19:57:59.905Z,5.80
2018-12-25T20:00:04.892Z,5.80
2018-12-25T20:02:09.382Z,5.90
2018-12-25T20:04:27.234Z,5.90
2018-12-25T20:06:44.447Z,5.80
2018-12-25T20:11:04.286Z,5.80
2018-12-25T20:13:26.639Z,5.80
2018-12-25T20:15:57.512Z,5.80
2018-12-25T20:18:57.638Z,5.80
2018-12-25T20:21:15.702Z,5.80
2018-12-25T20:26:09.671Z,5.80
2018-12-25T20:28:31.814Z,5.70
2018-12-25T20:32:52.463Z,5.70
2018-12-25T20:36:15.502Z,5.60
2018-12-25T20:41:42.197Z,5.70
2018-12-25T20:44:55.120Z,5.60
2018-12-25T20:47:46.565Z,5.60
2018-12-25T20:54:08.321Z,5.60
2018-12-25T20:57:00.826Z,5.50
2018-12-25T21:01:23.600Z,5.50
2018-12-25T21:03:44.718Z,5.50
2018-12-25T21:08:03.630Z,5.40
2018-12-25T21:12:22.339Z,5.50
2018-12-25T21:15:14.132Z,5.40
2018-12-25T21:19:32.455Z,5.40
2018-12-25T21:22:03.699Z,5.40
2018-12-25T21:24:19.232Z,5.40
2018-12-25T21:26:34.709Z,5.40
2018-12-25T21:28:39.128Z,5.30
2018-12-25T21:30:43.622Z,5.30
2018-12-25T21:32:48.046Z,5.30
2018-12-25T21:34:53.287Z,5.30
2018-12-25T21:36:57.818Z,5.30
2018-12-25T21:39:02.175Z,5.30
2018-12-25T21:41:06.979Z,5.30
2018-12-25T21:43:11.424Z,5.30
2018-12-25T21:45:15.814Z,5.30
2018-12-25T21:47:21.678Z,5.30
2018-12-25T21:49:26.139Z,5.30
2018-12-25T21:51:30.655Z,5.30
2018-12-25T21:53:35.651Z,5.30
2018-12-25T21:55:40.098Z,5.30
2018-12-25T21:57:44.519Z,5.20
2018-12-25T21:59:48.981Z,5.20
2018-12-25T22:01:53.580Z,5.20
2018-12-25T22:03:57.972Z,5.20
2018-12-25T22:06:02.374Z,5.10
2018-12-25T22:08:07.403Z,5.00
2018-12-25T22:10:11.806Z,5.00
2018-12-25T22:12:16.206Z,5.00
2018-12-25T22:14:20.655Z,5.00
2018-12-25T22:16:25.164Z,4.90
2018-12-25T22:18:29.671Z,4.80
2018-12-25T22:20:37.579Z,4.80
2018-12-25T22:22:42.102Z,4.70
2018-12-25T22:24:46.440Z,4.70
2018-12-25T22:26:50.867Z,4.60
2018-12-25T22:28:55.224Z,4.60
2018-12-25T22:30:59.601Z,4.60
2018-12-25T22:33:04.002Z,4.60
2018-12-25T22:35:08.418Z,4.50
2018-12-25T22:37:12.793Z,4.50
2018-12-25T22:39:17.150Z,4.50
2018-12-25T22:41:21.727Z,4.50
2018-12-25T22:43:26.275Z,4.50
2018-12-25T22:45:30.658Z,4.40
2018-12-25T22:47:35.181Z,4.30
2018-12-25T22:49:39.638Z,4.40
2018-12-25T22:51:44.070Z,4.30
2018-12-25T22:53:48.517Z,4.30
2018-12-25T22:55:52.866Z,4.30
2018-12-25T22:57:57.328Z,4.20
2018-12-25T23:00:01.968Z,4.20
2018-12-25T23:02:06.458Z,4.20
2018-12-25T23:04:10.925Z,4.10
2018-12-25T23:06:15.334Z,4.10
2018-12-25T23:08:19.691Z,4.10
2018-12-25T23:10:24.721Z,4.00
2018-12-25T23:12:29.154Z,4.00
2018-12-25T23:14:33.539Z,4.00
2018-12-25T23:16:38.715Z,4.00
2018-12-25T23:18:43.282Z,3.90
2018-12-25T23:20:47.634Z,4.00
2018-12-25T23:22:51.965Z,4.00
2018-12-25T23:24:56.417Z,3.90
2018-12-25T23:27:00.804Z,3.90
2018-12-25T23:29:05.150Z,3.80
2018-12-25T23:31:09.725Z,3.80
2018-12-25T23:33:13.979Z,3.80
2018-12-25T23:35:18.351Z,3.80
2018-12-25T23:37:22.834Z,3.80
2018-12-25T23:39:27.184Z,3.80
2018-12-25T23:41:31.566Z,3.70
2018-12-25T23:43:35.957Z,3.70
2018-12-25T23:45:40.347Z,3.70
2018-12-25T23:47:44.745Z,3.60
2018-12-25T23:49:49.154Z,3.60
2018-12-25T23:51:53.687Z,3.60
2018-12-25T23:53:58.044Z,3.50
2018-12-25T23:56:02.440Z,3.60
2018-12-25T23:58:06.815Z,3.60
